sensor_id;sensor_type;location;lat;lon;timestamp;temperature;humidity
74420;DHT22;62855;50.718;-2.460;2023-08-21T00:00:08;61.16;90.00
74420;DHT22;62855;50.718;-2.460;2023-08-21T00:03:06;61.34;90.00
74420;DHT22;62855;50.718;-2.460;2023-08-21T00:06:06;61.34;90.00
74420;DHT22;62855;50.718;-2.460;2023-08-21T00:09:06;61.34;90.00
74420;DHT22;62855;50.718;-2.460;2023-08-21T00:12:06;61.34;90.00
74420;DHT22;62855;50.718;-2.460;2023-08-21T00:15:07;61.52;90.00
74420;DHT22;62855;50.718;-2.460;2023-08-21T00:18:06;61.52;90.00
74420;DHT22;62855;50.718;-2.460;2023-08-21T00:21:06;61.52;90.00
74420;DHT22;62855;50.718;-2.460;2023-08-21T00:24:06;61.52;90.00
74420;DHT22;62855;50.718;-2.460;2023-08-21T00:27:06;61.52;90.00
74420;DHT22;62855;50.718;-2.460;2023-08-21T00:30:07;61.52;90.00
74420;DHT22;62855;50.718;-2.460;2023-08-21T00:33:06;61.52;90.00
74420;DHT22;62855;50.718;-2.460;2023-08-21T00:36:06;61.52;90.00
74420;DHT22;62855;50.718;-2.460;2023-08-21T00:39:06;61.52;90.00
74420;DHT22;62855;50.718;-2.460;2023-08-21T00:42:06;61.52;90.00
74420;DHT22;62855;50.718;-2.460;2023-08-21T00:45:07;61.52;90.00
74420;DHT22;62855;50.718;-2.460;2023-08-21T00:48:06;61.52;90.00
74420;DHT22;62855;50.718;-2.460;2023-08-21T00:51:06;61.70;90.00
74420;DHT22;62855;50.718;-2.460;2023-08-21T00:54:06;61.70;90.00
74420;DHT22;62855;50.718;-2.460;2023-08-21T00:57:07;61.52;90.00
74420;DHT22;62855;50.718;-2.460;2023-08-21T01:00:07;61.52;90.00
74420;DHT22;62855;50.718;-2.460;2023-08-21T01:03:06;61.52;89.00
74420;DHT22;62855;50.718;-2.460;2023-08-21T01:06:06;61.52;89.00
74420;DHT22;62855;50.718;-2.460;2023-08-21T01:09:13;61.34;89.00
74420;DHT22;62855;50.718;-2.460;2023-08-21T01:12:12;61.16;89.00
74420;DHT22;62855;50.718;-2.460;2023-08-21T01:15:07;61.16;89.00
74420;DHT22;62855;50.718;-2.460;2023-08-21T01:18:07;60.98;89.00
74420;DHT22;62855;50.718;-2.460;2023-08-21T01:21:06;60.98;89.00
74420;DHT22;62855;50.718;-2.460;2023-08-21T01:24:06;60.80;89.00
74420;DHT22;62855;50.718;-2.460;2023-08-21T01:27:06;60.80;89.00
74420;DHT22;62855;50.718;-2.460;2023-08-21T01:30:07;60.80;89.00
74420;DHT22;62855;50.718;-2.460;2023-08-21T01:33:09;60.80;89.00
74420;DHT22;62855;50.718;-2.460;2023-08-21T01:36:06;60.98;89.00
74420;DHT22;62855;50.718;-2.460;2023-08-21T01:39:06;60.98;90.00
74420;DHT22;62855;50.718;-2.460;2023-08-21T01:42:06;60.98;90.00
74420;DHT22;62855;50.718;-2.460;2023-08-21T01:45:07;60.98;90.00
74420;DHT22;62855;50.718;-2.460;2023-08-21T01:48:06;60.98;90.00
74420;DHT22;62855;50.718;-2.460;2023-08-21T01:51:06;60.98;90.00
74420;DHT22;62855;50.718;-2.460;2023-08-21T01:54:06;60.98;90.00
74420;DHT22;62855;50.718;-2.460;2023-08-21T01:57:06;61.16;90.00
74420;DHT22;62855;50.718;-2.460;2023-08-21T02:00:07;61.16;90.00
74420;DHT22;62855;50.718;-2.460;2023-08-21T02:03:06;61.16;90.00
74420;DHT22;62855;50.718;-2.460;2023-08-21T02:06:06;61.16;90.00
74420;DHT22;62855;50.718;-2.460;2023-08-21T02:09:06;61.16;90.00
74420;DHT22;62855;50.718;-2.460;2023-08-21T02:12:07;61.16;90.00
74420;DHT22;62855;50.718;-2.460;2023-08-21T02:15:07;61.16;90.00
74420;DHT22;62855;50.718;-2.460;2023-08-21T02:18:06;61.16;90.00
74420;DHT22;62855;50.718;-2.460;2023-08-21T02:21:06;61.16;90.00
74420;DHT22;62855;50.718;-2.460;2023-08-21T02:24:06;61.16;90.00
74420;DHT22;62855;50.718;-2.460;2023-08-21T02:27:06;61.16;90.00
74420;DHT22;62855;50.718;-2.460;2023-08-21T02:30:06;61.16;90.00
74420;DHT22;62855;50.718;-2.460;2023-08-21T02:33:06;61.16;90.00
74420;DHT22;62855;50.718;-2.460;2023-08-21T02:36:06;61.16;90.00
74420;DHT22;62855;50.718;-2.460;2023-08-21T02:39:06;61.16;90.00
74420;DHT22;62855;50.718;-2.460;2023-08-21T02:42:06;61.16;90.00
74420;DHT22;62855;50.718;-2.460;2023-08-21T02:45:08;61.16;90.00
74420;DHT22;62855;50.718;-2.460;2023-08-21T02:48:06;61.16;90.00
74420;DHT22;62855;50.718;-2.460;2023-08-21T02:51:06;61.16;90.00
74420;DHT22;62855;50.718;-2.460;2023-08-21T02:54:06;61.16;90.00
74420;DHT22;62855;50.718;-2.460;2023-08-21T02:57:06;61.16;90.00
74420;DHT22;62855;50.718;-2.460;2023-08-21T03:00:07;61.16;89.00
74420;DHT22;62855;50.718;-2.460;2023-08-21T03:03:06;61.16;89.00
74420;DHT22;62855;50.718;-2.460;2023-08-21T03:06:07;61.16;89.00
74420;DHT22;62855;50.718;-2.460;2023-08-21T03:09:06;61.16;89.00
74420;DHT22;62855;50.718;-2.460;2023-08-21T03:12:08;60.98;88.00
74420;DHT22;62855;50.718;-2.460;2023-08-21T03:15:06;60.98;88.00
74420;DHT22;62855;50.718;-2.460;2023-08-21T03:18:06;60.98;88.00
74420;DHT22;62855;50.718;-2.460;2023-08-21T03:21:06;60.98;88.00
74420;DHT22;62855;50.718;-2.460;2023-08-21T03:24:06;60.98;88.00
74420;DHT22;62855;50.718;-2.460;2023-08-21T03:27:06;60.98;88.00
74420;DHT22;62855;50.718;-2.460;2023-08-21T03:30:07;60.98;88.00
74420;DHT22;62855;50.718;-2.460;2023-08-21T03:33:06;60.98;88.00
74420;DHT22;62855;50.718;-2.460;2023-08-21T03:36:06;60.98;88.00
74420;DHT22;62855;50.718;-2.460;2023-08-21T03:39:06;60.98;88.00
74420;DHT22;62855;50.718;-2.460;2023-08-21T03:42:06;60.80;88.00
74420;DHT22;62855;50.718;-2.460;2023-08-21T03:45:07;60.80;88.00
74420;DHT22;62855;50.718;-2.460;2023-08-21T03:48:06;60.80;87.00
74420;DHT22;62855;50.718;-2.460;2023-08-21T03:51:06;60.80;87.00
74420;DHT22;62855;50.718;-2.460;2023-08-21T03:54:06;60.80;87.00
74420;DHT22;62855;50.718;-2.460;2023-08-21T03:57:06;60.80;87.00
74420;DHT22;62855;50.718;-2.460;2023-08-21T04:00:07;60.80;87.00
74420;DHT22;62855;50.718;-2.460;2023-08-21T04:03:06;60.62;86.00
74420;DHT22;62855;50.718;-2.460;2023-08-21T04:06:06;60.62;86.00
74420;DHT22;62855;50.718;-2.460;2023-08-21T04:09:06;60.62;86.00
74420;DHT22;62855;50.718;-2.460;2023-08-21T04:12:06;60.62;86.00
74420;DHT22;62855;50.718;-2.460;2023-08-21T04:15:07;60.62;86.00
74420;DHT22;62855;50.718;-2.460;2023-08-21T04:18:06;60.62;86.00
74420;DHT22;62855;50.718;-2.460;2023-08-21T04:21:06;60.62;86.00
74420;DHT22;62855;50.718;-2.460;2023-08-21T04:24:07;60.62;86.00
74420;DHT22;62855;50.718;-2.460;2023-08-21T04:27:06;60.62;85.00
74420;DHT22;62855;50.718;-2.460;2023-08-21T04:30:07;60.44;85.00
74420;DHT22;62855;50.718;-2.460;2023-08-21T04:33:06;60.44;85.00
74420;DHT22;62855;50.718;-2.460;2023-08-21T04:36:06;60.44;85.00
74420;DHT22;62855;50.718;-2.460;2023-08-21T04:39:06;60.44;85.00
74420;DHT22;62855;50.718;-2.460;2023-08-21T04:42:06;60.44;85.00
74420;DHT22;62855;50.718;-2.460;2023-08-21T04:45:07;60.44;86.00
74420;DHT22;62855;50.718;-2.460;2023-08-21T04:48:06;60.44;86.00
74420;DHT22;62855;50.718;-2.460;2023-08-21T04:51:06;60.44;86.00
74420;DHT22;62855;50.718;-2.460;2023-08-21T04:54:06;60.44;86.00
74420;DHT22;62855;50.718;-2.460;2023-08-21T04:57:06;60.44;86.00
74420;DHT22;62855;50.718;-2.460;2023-08-21T05:00:08;60.44;86.00
74420;DHT22;62855;50.718;-2.460;2023-08-21T05:03:06;60.44;86.00
74420;DHT22;62855;50.718;-2.460;2023-08-21T05:06:06;60.44;86.00
74420;DHT22;62855;50.718;-2.460;2023-08-21T05:09:06;60.44;86.00
74420;DHT22;62855;50.718;-2.460;2023-08-21T05:12:07;60.44;86.00
74420;DHT22;62855;50.718;-2.460;2023-08-21T05:15:07;60.44;86.00
74420;DHT22;62855;50.718;-2.460;2023-08-21T05:18:06;60.44;86.00
74420;DHT22;62855;50.718;-2.460;2023-08-21T05:21:07;60.44;86.00
74420;DHT22;62855;50.718;-2.460;2023-08-21T05:24:06;60.44;86.00
74420;DHT22;62855;50.718;-2.460;2023-08-21T05:27:06;60.44;84.00
74420;DHT22;62855;50.718;-2.460;2023-08-21T05:30:07;60.44;84.00
74420;DHT22;62855;50.718;-2.460;2023-08-21T05:33:06;60.44;84.00
74420;DHT22;62855;50.718;-2.460;2023-08-21T05:36:06;60.44;84.00
74420;DHT22;62855;50.718;-2.460;2023-08-21T05:39:07;60.44;84.00
74420;DHT22;62855;50.718;-2.460;2023-08-21T05:42:06;60.44;84.00
74420;DHT22;62855;50.718;-2.460;2023-08-21T05:45:07;60.44;84.00
74420;DHT22;62855;50.718;-2.460;2023-08-21T05:48:06;60.44;85.00
74420;DHT22;62855;50.718;-2.460;2023-08-21T05:51:06;60.62;85.00
74420;DHT22;62855;50.718;-2.460;2023-08-21T05:54:06;60.62;85.00
74420;DHT22;62855;50.718;-2.460;2023-08-21T05:57:06;60.62;85.00
74420;DHT22;62855;50.718;-2.460;2023-08-21T06:00:07;60.62;86.00
74420;DHT22;62855;50.718;-2.460;2023-08-21T06:03:06;60.80;86.00
74420;DHT22;62855;50.718;-2.460;2023-08-21T06:06:06;60.80;86.00
74420;DHT22;62855;50.718;-2.460;2023-08-21T06:09:06;60.80;86.00
74420;DHT22;62855;50.718;-2.460;2023-08-21T06:12:07;60.98;86.00
74420;DHT22;62855;50.718;-2.460;2023-08-21T06:15:06;60.98;86.00
74420;DHT22;62855;50.718;-2.460;2023-08-21T06:18:06;60.98;86.00
74420;DHT22;62855;50.718;-2.460;2023-08-21T06:21:06;61.16;86.00
74420;DHT22;62855;50.718;-2.460;2023-08-21T06:24:06;61.16;87.00
74420;DHT22;62855;50.718;-2.460;2023-08-21T06:27:07;61.16;87.00
74420;DHT22;62855;50.718;-2.460;2023-08-21T06:30:07;61.16;87.00
74420;DHT22;62855;50.718;-2.460;2023-08-21T06:33:06;61.34;87.00
74420;DHT22;62855;50.718;-2.460;2023-08-21T06:36:06;61.34;87.00
74420;DHT22;62855;50.718;-2.460;2023-08-21T06:39:06;61.52;87.00
74420;DHT22;62855;50.718;-2.460;2023-08-21T06:42:06;61.52;87.00
74420;DHT22;62855;50.718;-2.460;2023-08-21T06:45:06;61.52;86.00
74420;DHT22;62855;50.718;-2.460;2023-08-21T06:48:06;61.70;86.00
74420;DHT22;62855;50.718;-2.460;2023-08-21T06:51:06;61.70;86.00
74420;DHT22;62855;50.718;-2.460;2023-08-21T06:54:06;61.70;86.00
74420;DHT22;62855;50.718;-2.460;2023-08-21T06:57:06;61.70;85.00
74420;DHT22;62855;50.718;-2.460;2023-08-21T07:00:07;61.88;84.00
74420;DHT22;62855;50.718;-2.460;2023-08-21T07:03:05;61.88;83.00
74420;DHT22;62855;50.718;-2.460;2023-08-21T07:06:06;62.06;82.00
74420;DHT22;62855;50.718;-2.460;2023-08-21T07:09:06;62.24;81.00
74420;DHT22;62855;50.718;-2.460;2023-08-21T07:12:06;62.42;81.00
74420;DHT22;62855;50.718;-2.460;2023-08-21T07:15:07;62.42;81.00
74420;DHT22;62855;50.718;-2.460;2023-08-21T07:18:06;62.60;76.00
74420;DHT22;62855;50.718;-2.460;2023-08-21T07:21:06;62.78;76.00
74420;DHT22;62855;50.718;-2.460;2023-08-21T07:24:07;62.96;76.00
74420;DHT22;62855;50.718;-2.460;2023-08-21T07:27:06;63.14;76.00
74420;DHT22;62855;50.718;-2.460;2023-08-21T07:30:08;63.14;76.00
74420;DHT22;62855;50.718;-2.460;2023-08-21T07:33:06;63.14;75.00
74420;DHT22;62855;50.718;-2.460;2023-08-21T07:36:06;63.14;75.00
74420;DHT22;62855;50.718;-2.460;2023-08-21T07:39:06;63.32;75.00
74420;DHT22;62855;50.718;-2.460;2023-08-21T07:42:06;63.32;74.00
74420;DHT22;62855;50.718;-2.460;2023-08-21T07:45:07;63.50;74.00
74420;DHT22;62855;50.718;-2.460;2023-08-21T07:48:06;63.68;74.00
74420;DHT22;62855;50.718;-2.460;2023-08-21T07:51:06;63.68;74.00
74420;DHT22;62855;50.718;-2.460;2023-08-21T07:54:06;63.86;73.00
74420;DHT22;62855;50.718;-2.460;2023-08-21T07:57:06;64.04;72.00
74420;DHT22;62855;50.718;-2.460;2023-08-21T08:00:07;63.86;71.00
74420;DHT22;62855;50.718;-2.460;2023-08-21T08:03:06;64.04;71.00
74420;DHT22;62855;50.718;-2.460;2023-08-21T08:06:06;64.04;71.00
74420;DHT22;62855;50.718;-2.460;2023-08-21T08:09:06;64.04;71.00
74420;DHT22;62855;50.718;-2.460;2023-08-21T08:12:06;64.04;71.00
74420;DHT22;62855;50.718;-2.460;2023-08-21T08:15:07;64.04;71.00
74420;DHT22;62855;50.718;-2.460;2023-08-21T08:18:11;63.86;71.00
74420;DHT22;62855;50.718;-2.460;2023-08-21T08:21:06;63.86;71.00
74420;DHT22;62855;50.718;-2.460;2023-08-21T08:24:06;63.86;71.00
74420;DHT22;62855;50.718;-2.460;2023-08-21T08:27:06;63.86;71.00
74420;DHT22;62855;50.718;-2.460;2023-08-21T08:30:07;64.04;72.00
74420;DHT22;62855;50.718;-2.460;2023-08-21T08:33:06;64.04;71.00
74420;DHT22;62855;50.718;-2.460;2023-08-21T08:36:06;64.04;71.00
74420;DHT22;62855;50.718;-2.460;2023-08-21T08:39:06;63.86;71.00
74420;DHT22;62855;50.718;-2.460;2023-08-21T08:42:07;63.86;71.00
74420;DHT22;62855;50.718;-2.460;2023-08-21T08:45:07;63.86;72.00
74420;DHT22;62855;50.718;-2.460;2023-08-21T08:48:07;63.86;72.00
74420;DHT22;62855;50.718;-2.460;2023-08-21T08:51:06;63.86;72.00
74420;DHT22;62855;50.718;-2.460;2023-08-21T08:54:07;64.04;73.00
74420;DHT22;62855;50.718;-2.460;2023-08-21T08:57:06;64.04;73.00
74420;DHT22;62855;50.718;-2.460;2023-08-21T09:00:07;64.22;73.00
74420;DHT22;62855;50.718;-2.460;2023-08-21T09:03:07;64.22;73.00
74420;DHT22;62855;50.718;-2.460;2023-08-21T09:06:06;64.40;73.00
74420;DHT22;62855;50.718;-2.460;2023-08-21T09:09:08;64.40;72.00
74420;DHT22;62855;50.718;-2.460;2023-08-21T09:12:10;64.40;72.00
74420;DHT22;62855;50.718;-2.460;2023-08-21T09:15:07;64.94;74.00
74420;DHT22;62855;50.718;-2.460;2023-08-21T09:18:08;64.94;74.00
74420;DHT22;62855;50.718;-2.460;2023-08-21T09:21:06;64.94;74.00
74420;DHT22;62855;50.718;-2.460;2023-08-21T09:24:06;64.94;74.00
74420;DHT22;62855;50.718;-2.460;2023-08-21T09:27:12;64.94;74.00
74420;DHT22;62855;50.718;-2.460;2023-08-21T09:30:09;64.76;74.00
74420;DHT22;62855;50.718;-2.460;2023-08-21T09:33:06;64.76;74.00
74420;DHT22;62855;50.718;-2.460;2023-08-21T09:36:06;64.76;75.00
74420;DHT22;62855;50.718;-2.460;2023-08-21T09:39:07;64.94;75.00
74420;DHT22;62855;50.718;-2.460;2023-08-21T09:42:07;65.12;76.00
74420;DHT22;62855;50.718;-2.460;2023-08-21T09:45:07;65.30;76.00
74420;DHT22;62855;50.718;-2.460;2023-08-21T09:48:07;65.48;76.00
74420;DHT22;62855;50.718;-2.460;2023-08-21T09:51:06;65.48;75.00
74420;DHT22;62855;50.718;-2.460;2023-08-21T09:54:06;65.48;75.00
74420;DHT22;62855;50.718;-2.460;2023-08-21T09:57:06;65.66;75.00
74420;DHT22;62855;50.718;-2.460;2023-08-21T10:00:07;65.66;75.00
74420;DHT22;62855;50.718;-2.460;2023-08-21T10:03:08;65.66;75.00
74420;DHT22;62855;50.718;-2.460;2023-08-21T10:06:08;65.48;74.00
74420;DHT22;62855;50.718;-2.460;2023-08-21T10:09:06;65.48;74.00
74420;DHT22;62855;50.718;-2.460;2023-08-21T10:12:06;65.66;75.00
74420;DHT22;62855;50.718;-2.460;2023-08-21T10:15:07;65.66;74.00
74420;DHT22;62855;50.718;-2.460;2023-08-21T10:18:18;65.66;74.00
74420;DHT22;62855;50.718;-2.460;2023-08-21T10:21:12;65.84;74.00
74420;DHT22;62855;50.718;-2.460;2023-08-21T10:24:07;66.20;74.00
74420;DHT22;62855;50.718;-2.460;2023-08-21T10:27:06;66.56;73.00
74420;DHT22;62855;50.718;-2.460;2023-08-21T10:30:13;66.92;73.00
74420;DHT22;62855;50.718;-2.460;2023-08-21T10:33:06;66.92;72.00
74420;DHT22;62855;50.718;-2.460;2023-08-21T10:36:06;66.92;72.00
74420;DHT22;62855;50.718;-2.460;2023-08-21T10:39:14;66.92;71.00
74420;DHT22;62855;50.718;-2.460;2023-08-21T10:42:08;66.74;71.00
74420;DHT22;62855;50.718;-2.460;2023-08-21T10:45:11;66.74;71.00
74420;DHT22;62855;50.718;-2.460;2023-08-21T10:48:06;66.56;70.00
74420;DHT22;62855;50.718;-2.460;2023-08-21T10:51:07;66.56;70.00
74420;DHT22;62855;50.718;-2.460;2023-08-21T10:54:11;66.74;70.00
74420;DHT22;62855;50.718;-2.460;2023-08-21T10:57:07;66.74;70.00
74420;DHT22;62855;50.718;-2.460;2023-08-21T11:00:08;66.92;70.00
74420;DHT22;62855;50.718;-2.460;2023-08-21T11:03:06;66.92;70.00
74420;DHT22;62855;50.718;-2.460;2023-08-21T11:06:09;66.74;70.00
74420;DHT22;62855;50.718;-2.460;2023-08-21T11:09:12;66.74;69.00
74420;DHT22;62855;50.718;-2.460;2023-08-21T11:12:08;66.56;70.00
74420;DHT22;62855;50.718;-2.460;2023-08-21T11:15:07;66.38;70.00
74420;DHT22;62855;50.718;-2.460;2023-08-21T11:18:06;66.38;70.00
74420;DHT22;62855;50.718;-2.460;2023-08-21T11:21:07;66.20;70.00
74420;DHT22;62855;50.718;-2.460;2023-08-21T11:24:06;65.84;70.00
74420;DHT22;62855;50.718;-2.460;2023-08-21T11:27:07;65.84;70.00
74420;DHT22;62855;50.718;-2.460;2023-08-21T11:30:07;65.66;71.00
74420;DHT22;62855;50.718;-2.460;2023-08-21T11:33:07;65.48;71.00
74420;DHT22;62855;50.718;-2.460;2023-08-21T11:36:06;65.30;72.00
74420;DHT22;62855;50.718;-2.460;2023-08-21T11:39:06;65.48;72.00
74420;DHT22;62855;50.718;-2.460;2023-08-21T11:42:09;65.66;72.00
74420;DHT22;62855;50.718;-2.460;2023-08-21T11:45:08;66.02;73.00
74420;DHT22;62855;50.718;-2.460;2023-08-21T11:48:07;66.20;72.00
74420;DHT22;62855;50.718;-2.460;2023-08-21T11:51:06;66.38;72.00
74420;DHT22;62855;50.718;-2.460;2023-08-21T11:54:06;66.56;71.00
74420;DHT22;62855;50.718;-2.460;2023-08-21T11:57:08;66.74;71.00
74420;DHT22;62855;50.718;-2.460;2023-08-21T12:00:09;66.74;71.00
74420;DHT22;62855;50.718;-2.460;2023-08-21T12:03:06;66.92;71.00
74420;DHT22;62855;50.718;-2.460;2023-08-21T12:06:07;66.92;71.00
74420;DHT22;62855;50.718;-2.460;2023-08-21T12:09:06;67.10;71.00
74420;DHT22;62855;50.718;-2.460;2023-08-21T12:12:06;67.28;71.00
74420;DHT22;62855;50.718;-2.460;2023-08-21T12:15:06;67.28;70.00
74420;DHT22;62855;50.718;-2.460;2023-08-21T12:18:06;67.28;70.00
74420;DHT22;62855;50.718;-2.460;2023-08-21T12:21:06;67.28;70.00
74420;DHT22;62855;50.718;-2.460;2023-08-21T12:24:06;67.28;70.00
74420;DHT22;62855;50.718;-2.460;2023-08-21T12:27:07;67.10;70.00
74420;DHT22;62855;50.718;-2.460;2023-08-21T12:30:07;66.92;70.00
74420;DHT22;62855;50.718;-2.460;2023-08-21T12:33:06;66.74;70.00
74420;DHT22;62855;50.718;-2.460;2023-08-21T12:36:07;66.74;70.00
74420;DHT22;62855;50.718;-2.460;2023-08-21T12:39:07;66.56;70.00
74420;DHT22;62855;50.718;-2.460;2023-08-21T12:42:06;66.56;70.00
74420;DHT22;62855;50.718;-2.460;2023-08-21T12:45:07;66.74;71.00
74420;DHT22;62855;50.718;-2.460;2023-08-21T12:48:06;66.92;71.00
74420;DHT22;62855;50.718;-2.460;2023-08-21T12:51:06;67.28;70.00
74420;DHT22;62855;50.718;-2.460;2023-08-21T12:54:06;67.46;70.00
74420;DHT22;62855;50.718;-2.460;2023-08-21T12:57:06;67.46;70.00
74420;DHT22;62855;50.718;-2.460;2023-08-21T13:00:07;67.46;70.00
74420;DHT22;62855;50.718;-2.460;2023-08-21T13:03:06;67.64;70.00
74420;DHT22;62855;50.718;-2.460;2023-08-21T13:06:06;67.82;70.00
74420;DHT22;62855;50.718;-2.460;2023-08-21T13:09:07;67.82;70.00
74420;DHT22;62855;50.718;-2.460;2023-08-21T13:12:06;68.00;70.00
74420;DHT22;62855;50.718;-2.460;2023-08-21T13:15:07;68.36;70.00
74420;DHT22;62855;50.718;-2.460;2023-08-21T13:18:06;68.36;69.00
74420;DHT22;62855;50.718;-2.460;2023-08-21T13:21:06;68.72;69.00
74420;DHT22;62855;50.718;-2.460;2023-08-21T13:24:06;68.90;69.00
74420;DHT22;62855;50.718;-2.460;2023-08-21T13:27:06;68.72;67.00
74420;DHT22;62855;50.718;-2.460;2023-08-21T13:30:08;68.54;68.00
74420;DHT22;62855;50.718;-2.460;2023-08-21T13:33:07;68.54;68.00
74420;DHT22;62855;50.718;-2.460;2023-08-21T13:36:06;68.36;68.00
74420;DHT22;62855;50.718;-2.460;2023-08-21T13:39:06;68.18;68.00
74420;DHT22;62855;50.718;-2.460;2023-08-21T13:42:12;68.18;68.00
74420;DHT22;62855;50.718;-2.460;2023-08-21T13:45:08;68.00;68.00
74420;DHT22;62855;50.718;-2.460;2023-08-21T13:48:06;67.82;68.00
74420;DHT22;62855;50.718;-2.460;2023-08-21T13:51:06;67.82;69.00
74420;DHT22;62855;50.718;-2.460;2023-08-21T13:54:07;67.64;69.00
74420;DHT22;62855;50.718;-2.460;2023-08-21T13:57:06;67.64;69.00
74420;DHT22;62855;50.718;-2.460;2023-08-21T14:00:09;67.64;69.00
74420;DHT22;62855;50.718;-2.460;2023-08-21T14:03:06;67.46;69.00
74420;DHT22;62855;50.718;-2.460;2023-08-21T14:06:07;67.46;69.00
74420;DHT22;62855;50.718;-2.460;2023-08-21T14:09:06;67.46;69.00
74420;DHT22;62855;50.718;-2.460;2023-08-21T14:12:07;67.46;69.00
74420;DHT22;62855;50.718;-2.460;2023-08-21T14:15:07;67.46;70.00
74420;DHT22;62855;50.718;-2.460;2023-08-21T14:18:06;67.28;69.00
74420;DHT22;62855;50.718;-2.460;2023-08-21T14:21:06;67.10;70.00
74420;DHT22;62855;50.718;-2.460;2023-08-21T14:24:06;67.10;70.00
74420;DHT22;62855;50.718;-2.460;2023-08-21T14:27:06;66.92;69.00
74420;DHT22;62855;50.718;-2.460;2023-08-21T14:30:07;66.92;70.00
74420;DHT22;62855;50.718;-2.460;2023-08-21T14:33:06;66.92;70.00
74420;DHT22;62855;50.718;-2.460;2023-08-21T14:36:06;67.10;70.00
74420;DHT22;62855;50.718;-2.460;2023-08-21T14:39:07;67.10;70.00
74420;DHT22;62855;50.718;-2.460;2023-08-21T14:42:06;67.46;70.00
74420;DHT22;62855;50.718;-2.460;2023-08-21T14:45:07;67.46;70.00
74420;DHT22;62855;50.718;-2.460;2023-08-21T14:48:06;67.64;70.00
74420;DHT22;62855;50.718;-2.460;2023-08-21T14:51:06;67.64;70.00
74420;DHT22;62855;50.718;-2.460;2023-08-21T14:54:06;67.82;69.00
74420;DHT22;62855;50.718;-2.460;2023-08-21T14:57:06;67.64;68.00
74420;DHT22;62855;50.718;-2.460;2023-08-21T15:00:07;67.64;69.00
74420;DHT22;62855;50.718;-2.460;2023-08-21T15:03:06;67.82;69.00
74420;DHT22;62855;50.718;-2.460;2023-08-21T15:06:06;67.64;68.00
74420;DHT22;62855;50.718;-2.460;2023-08-21T15:09:07;67.82;68.00
74420;DHT22;62855;50.718;-2.460;2023-08-21T15:12:08;67.64;67.00
74420;DHT22;62855;50.718;-2.460;2023-08-21T15:15:06;67.64;67.00
74420;DHT22;62855;50.718;-2.460;2023-08-21T15:18:06;67.82;68.00
74420;DHT22;62855;50.718;-2.460;2023-08-21T15:21:06;68.00;68.00
74420;DHT22;62855;50.718;-2.460;2023-08-21T15:24:06;68.00;67.00
74420;DHT22;62855;50.718;-2.460;2023-08-21T15:27:06;67.82;67.00
74420;DHT22;62855;50.718;-2.460;2023-08-21T15:30:07;67.82;67.00
74420;DHT22;62855;50.718;-2.460;2023-08-21T15:33:06;67.64;67.00
74420;DHT22;62855;50.718;-2.460;2023-08-21T15:36:06;67.46;68.00
74420;DHT22;62855;50.718;-2.460;2023-08-21T15:39:06;67.46;68.00
74420;DHT22;62855;50.718;-2.460;2023-08-21T15:42:06;67.64;69.00
74420;DHT22;62855;50.718;-2.460;2023-08-21T15:45:06;67.46;69.00
74420;DHT22;62855;50.718;-2.460;2023-08-21T15:48:06;67.46;69.00
74420;DHT22;62855;50.718;-2.460;2023-08-21T15:51:06;67.46;69.00
74420;DHT22;62855;50.718;-2.460;2023-08-21T15:54:06;67.64;69.00
74420;DHT22;62855;50.718;-2.460;2023-08-21T15:57:06;67.82;70.00
74420;DHT22;62855;50.718;-2.460;2023-08-21T16:00:07;68.00;69.00
74420;DHT22;62855;50.718;-2.460;2023-08-21T16:03:07;67.82;68.00
74420;DHT22;62855;50.718;-2.460;2023-08-21T16:06:06;67.64;68.00
74420;DHT22;62855;50.718;-2.460;2023-08-21T16:09:06;67.46;68.00
74420;DHT22;62855;50.718;-2.460;2023-08-21T16:12:07;67.46;69.00
74420;DHT22;62855;50.718;-2.460;2023-08-21T16:15:11;67.46;69.00
74420;DHT22;62855;50.718;-2.460;2023-08-21T16:19:06;67.46;70.00
74420;DHT22;62855;50.718;-2.460;2023-08-21T16:22:06;67.64;70.00
74420;DHT22;62855;50.718;-2.460;2023-08-21T16:25:07;67.82;70.00
74420;DHT22;62855;50.718;-2.460;2023-08-21T16:28:06;67.64;70.00
74420;DHT22;62855;50.718;-2.460;2023-08-21T16:31:07;67.64;69.00
74420;DHT22;62855;50.718;-2.460;2023-08-21T16:34:06;67.28;70.00
74420;DHT22;62855;50.718;-2.460;2023-08-21T16:37:06;67.28;70.00
74420;DHT22;62855;50.718;-2.460;2023-08-21T16:40:08;67.28;70.00
74420;DHT22;62855;50.718;-2.460;2023-08-21T16:43:06;67.10;70.00
74420;DHT22;62855;50.718;-2.460;2023-08-21T16:46:06;67.10;70.00
74420;DHT22;62855;50.718;-2.460;2023-08-21T16:49:06;67.10;70.00
74420;DHT22;62855;50.718;-2.460;2023-08-21T16:52:06;67.10;71.00
74420;DHT22;62855;50.718;-2.460;2023-08-21T16:55:07;67.10;71.00
74420;DHT22;62855;50.718;-2.460;2023-08-21T16:58:06;67.28;71.00
74420;DHT22;62855;50.718;-2.460;2023-08-21T17:01:06;67.28;70.00
74420;DHT22;62855;50.718;-2.460;2023-08-21T17:04:06;67.28;70.00
74420;DHT22;62855;50.718;-2.460;2023-08-21T17:07:06;67.10;70.00
74420;DHT22;62855;50.718;-2.460;2023-08-21T17:10:07;67.10;70.00
74420;DHT22;62855;50.718;-2.460;2023-08-21T17:13:07;67.10;70.00
74420;DHT22;62855;50.718;-2.460;2023-08-21T17:16:06;66.92;70.00
74420;DHT22;62855;50.718;-2.460;2023-08-21T17:19:07;66.92;70.00
74420;DHT22;62855;50.718;-2.460;2023-08-21T17:22:06;66.74;70.00
74420;DHT22;62855;50.718;-2.460;2023-08-21T17:25:07;66.74;70.00
74420;DHT22;62855;50.718;-2.460;2023-08-21T17:28:06;66.74;70.00
74420;DHT22;62855;50.718;-2.460;2023-08-21T17:31:06;66.74;70.00
74420;DHT22;62855;50.718;-2.460;2023-08-21T17:34:06;66.56;70.00
74420;DHT22;62855;50.718;-2.460;2023-08-21T17:37:07;66.38;70.00
74420;DHT22;62855;50.718;-2.460;2023-08-21T17:40:07;66.38;70.00
74420;DHT22;62855;50.718;-2.460;2023-08-21T17:43:06;66.38;71.00
74420;DHT22;62855;50.718;-2.460;2023-08-21T17:46:06;66.20;71.00
74420;DHT22;62855;50.718;-2.460;2023-08-21T17:49:06;66.02;71.00
74420;DHT22;62855;50.718;-2.460;2023-08-21T17:52:06;65.84;71.00
74420;DHT22;62855;50.718;-2.460;2023-08-21T17:55:07;65.48;71.00
74420;DHT22;62855;50.718;-2.460;2023-08-21T17:58:07;65.48;72.00
74420;DHT22;62855;50.718;-2.460;2023-08-21T18:01:06;65.12;72.00
74420;DHT22;62855;50.718;-2.460;2023-08-21T18:04:06;65.12;72.00
74420;DHT22;62855;50.718;-2.460;2023-08-21T18:07:06;64.94;72.00
74420;DHT22;62855;50.718;-2.460;2023-08-21T18:10:07;64.76;73.00
74420;DHT22;62855;50.718;-2.460;2023-08-21T18:13:06;64.58;73.00
74420;DHT22;62855;50.718;-2.460;2023-08-21T18:16:06;64.22;73.00
74420;DHT22;62855;50.718;-2.460;2023-08-21T18:19:06;64.22;73.00
74420;DHT22;62855;50.718;-2.460;2023-08-21T18:22:07;64.04;74.00
74420;DHT22;62855;50.718;-2.460;2023-08-21T18:25:06;63.86;74.00
74420;DHT22;62855;50.718;-2.460;2023-08-21T18:28:06;63.68;74.00
74420;DHT22;62855;50.718;-2.460;2023-08-21T18:31:06;63.50;75.00
74420;DHT22;62855;50.718;-2.460;2023-08-21T18:34:06;63.32;75.00
74420;DHT22;62855;50.718;-2.460;2023-08-21T18:37:08;63.14;76.00